createdAt,value
2017-07-15T00:01:46.714Z,15.90
2017-07-15T00:04:15.053Z,15.80
2017-07-15T00:06:43.379Z,15.80
2017-07-15T00:09:12.456Z,15.80
2017-07-15T00:11:40.783Z,15.80
2017-07-15T00:14:09.092Z,15.80
2017-07-15T00:16:37.438Z,15.80
2017-07-15T00:19:05.737Z,15.80
2017-07-15T00:21:34.036Z,15.80
2017-07-15T00:24:02.372Z,15.70
2017-07-15T00:26:30.746Z,15.70
2017-07-15T00:28:59.046Z,15.70
2017-07-15T00:31:27.390Z,15.70
2017-07-15T00:33:55.685Z,15.70
2017-07-15T00:36:24.746Z,15.70
2017-07-15T00:38:53.090Z,15.70
2017-07-15T00:41:21.385Z,15.70
2017-07-15T00:43:49.679Z,15.70
2017-07-15T00:46:18.027Z,15.70
2017-07-15T00:48:46.324Z,15.60
2017-07-15T00:51:15.422Z,15.50
2017-07-15T00:53:43.773Z,15.50
2017-07-15T00:56:12.070Z,15.50
2017-07-15T00:58:41.132Z,15.50
2017-07-15T01:04:06.974Z,15.50
2017-07-15T01:06:35.269Z,15.40
2017-07-15T01:09:03.600Z,15.40
2017-07-15T01:11:31.959Z,15.40
2017-07-15T01:14:00.774Z,15.40
2017-07-15T01:16:29.100Z,15.30
2017-07-15T01:18:57.391Z,15.30
2017-07-15T01:21:25.717Z,15.20
2017-07-15T01:23:54.017Z,15.20
2017-07-15T01:26:22.309Z,15.10
2017-07-15T01:28:51.542Z,15.10
2017-07-15T01:31:26.795Z,15.10
2017-07-15T01:33:55.137Z,15.00
2017-07-15T01:36:23.430Z,15.00
2017-07-15T01:38:51.728Z,15.00
2017-07-15T01:41:20.833Z,15.10
2017-07-15T01:43:49.126Z,15.00
2017-07-15T01:46:17.420Z,15.00
2017-07-15T01:48:45.749Z,15.00
2017-07-15T01:51:14.048Z,14.90
2017-07-15T01:53:42.387Z,14.80
2017-07-15T01:56:10.685Z,14.80
2017-07-15T01:58:38.980Z,14.70
2017-07-15T02:01:07.307Z,14.70
2017-07-15T02:03:36.367Z,14.70
2017-07-15T02:06:04.661Z,14.60
2017-07-15T02:08:33.280Z,14.70
2017-07-15T02:11:01.578Z,14.70
2017-07-15T02:13:29.867Z,14.70
2017-07-15T02:15:58.191Z,14.80
2017-07-15T02:18:26.524Z,14.80
2017-07-15T02:20:54.815Z,14.70
2017-07-15T02:23:23.109Z,14.60
2017-07-15T02:25:51.438Z,14.50
2017-07-15T02:28:19.729Z,14.40
2017-07-15T02:30:48.788Z,14.30
2017-07-15T02:33:17.120Z,14.30
2017-07-15T02:35:45.451Z,14.30
2017-07-15T02:38:13.741Z,14.30
2017-07-15T02:40:42.034Z,14.30
2017-07-15T02:43:11.127Z,14.40
2017-07-15T02:45:40.293Z,14.50
2017-07-15T02:48:09.385Z,14.40
2017-07-15T02:50:37.676Z,14.40
2017-07-15T02:53:05.996Z,14.40
2017-07-15T02:55:34.314Z,14.30
2017-07-15T02:58:02.610Z,14.30
2017-07-15T03:00:30.927Z,14.30
2017-07-15T03:02:59.253Z,14.30
2017-07-15T03:05:27.740Z,14.30
2017-07-15T03:07:56.832Z,14.40
2017-07-15T03:10:25.126Z,14.40
2017-07-15T03:12:53.452Z,14.40
2017-07-15T03:15:21.830Z,14.40
2017-07-15T03:17:50.126Z,14.50
2017-07-15T03:20:18.425Z,14.50
2017-07-15T03:22:46.736Z,14.50
2017-07-15T03:25:15.833Z,14.50
2017-07-15T03:27:44.154Z,14.40
2017-07-15T03:30:12.448Z,14.50
2017-07-15T03:32:40.998Z,14.50
2017-07-15T03:35:10.058Z,14.60
2017-07-15T03:37:38.399Z,14.60
2017-07-15T03:40:06.703Z,14.60
2017-07-15T03:42:34.997Z,14.50
2017-07-15T03:45:03.325Z,14.50
2017-07-15T03:47:31.609Z,14.60
2017-07-15T03:49:59.976Z,14.60
2017-07-15T03:52:29.067Z,14.70
2017-07-15T03:54:57.455Z,14.70
2017-07-15T03:57:25.754Z,14.70
2017-07-15T03:59:54.084Z,14.70
2017-07-15T04:02:22.379Z,14.70
2017-07-15T04:04:50.697Z,14.70
2017-07-15T04:07:19.020Z,14.70
2017-07-15T04:09:47.312Z,14.70
2017-07-15T04:12:15.653Z,14.70
2017-07-15T04:14:43.959Z,14.80
2017-07-15T04:17:12.256Z,14.80
2017-07-15T04:19:41.526Z,14.80
2017-07-15T04:22:09.822Z,14.70
2017-07-15T04:24:38.118Z,14.80
2017-07-15T04:27:06.434Z,14.90
2017-07-15T04:29:34.799Z,14.90
2017-07-15T04:32:03.246Z,14.90
2017-07-15T04:34:32.316Z,15.00
2017-07-15T04:37:00.772Z,15.00
2017-07-15T04:39:29.173Z,15.10
2017-07-15T04:41:58.238Z,15.20
2017-07-15T04:44:26.603Z,15.20
2017-07-15T04:46:54.974Z,15.20
2017-07-15T04:52:02.477Z,15.20
2017-07-15T04:54:30.928Z,15.10
2017-07-15T04:57:00.033Z,15.10
2017-07-15T04:59:28.330Z,15.10
2017-07-15T05:01:56.812Z,15.00
2017-07-15T05:04:25.669Z,15.00
2017-07-15T05:06:54.156Z,15.10
2017-07-15T05:09:22.446Z,15.20
2017-07-15T05:11:50.773Z,15.20
2017-07-15T05:14:19.065Z,15.30
2017-07-15T05:16:47.401Z,15.40
2017-07-15T05:19:15.697Z,15.50
2017-07-15T05:21:44.063Z,15.60
2017-07-15T05:24:12.389Z,15.60
2017-07-15T05:26:40.691Z,15.60
2017-07-15T05:29:09.026Z,15.60
2017-07-15T05:31:37.419Z,15.70
2017-07-15T05:34:05.716Z,15.80
2017-07-15T05:36:34.268Z,15.80
2017-07-15T05:39:02.595Z,15.90
2017-07-15T05:41:31.022Z,15.90
2017-07-15T05:43:59.347Z,15.90
2017-07-15T05:46:27.710Z,15.80
2017-07-15T05:48:56.029Z,15.80
2017-07-15T05:51:24.346Z,15.70
2017-07-15T05:53:52.685Z,15.70
2017-07-15T05:56:20.969Z,15.80
2017-07-15T05:58:49.281Z,15.70
2017-07-15T06:01:17.582Z,15.80
2017-07-15T06:03:45.912Z,15.80
2017-07-15T06:06:14.212Z,15.80
2017-07-15T06:08:42.503Z,15.90
2017-07-15T06:11:11.609Z,15.80
2017-07-15T06:13:39.909Z,15.80
2017-07-15T06:16:08.289Z,15.90
2017-07-15T06:18:36.625Z,16.00
2017-07-15T06:21:04.921Z,16.00
2017-07-15T06:23:33.216Z,15.90
2017-07-15T06:26:01.541Z,15.90
2017-07-15T06:28:29.849Z,15.80
2017-07-15T06:30:58.306Z,15.70
2017-07-15T06:33:26.696Z,15.70
2017-07-15T06:35:54.987Z,15.80
2017-07-15T06:38:23.369Z,15.80
2017-07-15T06:40:51.781Z,16.00
2017-07-15T06:43:20.106Z,16.10
2017-07-15T06:45:49.357Z,16.10
2017-07-15T06:48:17.650Z,16.10
2017-07-15T06:50:45.984Z,16.20
2017-07-15T06:53:14.268Z,16.10
2017-07-15T06:55:44.188Z,16.20
2017-07-15T06:58:12.503Z,16.20
2017-07-15T07:00:40.860Z,16.30
2017-07-15T07:03:09.948Z,16.60
2017-07-15T07:05:38.237Z,16.60
2017-07-15T07:08:06.558Z,16.80
2017-07-15T07:10:34.901Z,17.00
2017-07-15T07:13:03.511Z,17.20
2017-07-15T07:15:31.809Z,17.40
2017-07-15T07:18:00.153Z,17.60
2017-07-15T07:20:28.444Z,17.60
2017-07-15T07:22:56.910Z,17.40
2017-07-15T07:25:25.230Z,17.20
2017-07-15T07:27:53.521Z,17.30
2017-07-15T07:30:22.627Z,17.60
2017-07-15T07:32:50.917Z,17.60
2017-07-15T07:35:19.215Z,17.80
2017-07-15T07:37:47.553Z,17.90
2017-07-15T07:40:15.849Z,18.00
2017-07-15T07:42:44.140Z,17.90
2017-07-15T07:45:12.477Z,17.90
2017-07-15T07:47:40.913Z,17.70
2017-07-15T07:50:09.321Z,17.50
2017-07-15T07:52:38.001Z,17.50
2017-07-15T07:55:06.395Z,17.80
2017-07-15T07:57:34.970Z,18.20
2017-07-15T08:00:03.521Z,18.90
2017-07-15T08:02:31.877Z,20.10
2017-07-15T08:05:00.441Z,21.10
2017-07-15T08:07:30.071Z,21.30
2017-07-15T08:09:58.391Z,21.30
2017-07-15T08:12:27.553Z,21.90
2017-07-15T08:14:56.701Z,24.30
2017-07-15T08:17:25.006Z,24.20
2017-07-15T08:19:56.732Z,25.10
2017-07-15T08:22:25.022Z,25.00
2017-07-15T08:24:53.360Z,24.60
2017-07-15T08:27:22.418Z,23.10
2017-07-15T08:29:50.765Z,23.10
2017-07-15T08:32:19.063Z,22.70
2017-07-15T08:34:47.362Z,22.50
